Calcasieu, Louisiana
Current Conditions -  °F | °C
As of 5:15 PM on Wednesday 22 Oct 2014 (Local Time) from KACP Reporting Station
Clear Clear  
Wind Chill: 76°   Ceiling: Unl
Heat Index: 78°   Visibility: 10mi
Dew Point: 54°   Wind: 5mph
Humidity: 45%   Direction: 20°NNE
Pressure: 30.05"   Gusts: NA
Location:  30.9922°N, 92.6266°W
Report Text: KACP 222215Z AUTO 02004KT 10SM CLR 25/12 A3005 RMK AO2 T02450120
Loading
Personal Weather Stations






























Interactive Weather Map
Tropical Storm Tracking
New forecast layout! Learn more

10-Day Weather Forecast

Advertisements
Track Severe Weather on mobile